Time;durP1;ratioP1;P1;durP2;ratioP2;P2;SDS_P1;SDS_P2;PMS_P1;PMS_P2;Temp;Humidity;BMP_temperature;BMP_pressure;BME280_temperature;BME280_humidity;BME280_pressure;Samples;Min_cycle;Max_cycle;Signal;HPM_P1;HPM_P2
2022/10/30 00:01:28;;;;;;;23.98;11.73;;;;;;;13.55;100.00;101592.22;5070227;27;20051;-81
2022/10/30 00:03:57;;;;;;;19.30;10.68;;;;;;;13.54;100.00;101601.06;5066287;28;20042;-82
2022/10/30 00:06:29;;;;;;;24.50;11.80;;;;;;;13.54;100.00;101601.06;5083111;28;20698;-81
2022/10/30 00:09:00;;;;;;;23.52;10.63;;;;;;;13.55;100.00;101602.81;5053715;27;20047;-81
2022/10/30 00:11:29;;;;;;;30.70;12.02;;;;;;;13.55;100.00;101604.59;5064241;28;20531;-81
2022/10/30 00:13:58;;;;;;;24.80;10.82;;;;;;;13.55;100.00;101601.94;5098767;28;20031;-81
2022/10/30 00:16:27;;;;;;;24.92;12.43;;;;;;;13.53;100.00;101609.88;5075123;28;20405;-81
2022/10/30 00:18:55;;;;;;;20.73;10.75;;;;;;;13.52;100.00;101608.13;5111025;28;20047;-81
2022/10/30 00:21:24;;;;;;;16.15;10.60;;;;;;;13.51;100.00;101609.00;5092005;28;20040;-80
2022/10/30 00:23:53;;;;;;;18.85;10.60;;;;;;;13.51;100.00;101601.06;5047792;28;20050;-81
2022/10/30 00:26:22;;;;;;;25.75;11.80;;;;;;;13.51;100.00;101606.34;5069499;28;20050;-81
2022/10/30 00:28:54;;;;;;;26.02;11.55;;;;;;;13.50;100.00;101607.25;5055528;28;20052;-81
2022/10/30 00:31:24;;;;;;;18.35;11.73;;;;;;;13.51;100.00;101610.78;5077754;28;20634;-81
2022/10/30 00:33:54;;;;;;;21.13;11.57;;;;;;;13.49;100.00;101610.75;5086562;28;20043;-81
2022/10/30 00:36:22;;;;;;;24.17;11.85;;;;;;;13.50;100.00;101609.00;5059945;28;20036;-81
2022/10/30 00:38:51;;;;;;;21.02;10.35;;;;;;;13.48;100.00;101601.06;5055939;28;20039;-81
2022/10/30 00:41:23;;;;;;;23.00;10.80;;;;;;;13.48;100.00;101603.72;5049118;28;20035;-80
2022/10/30 00:43:52;;;;;;;17.00;10.55;;;;;;;13.47;100.00;101596.63;5094865;28;20055;-81
2022/10/30 00:46:26;;;;;;;25.13;11.75;;;;;;;13.47;100.00;101609.88;5052277;28;20536;-81
2022/10/30 00:49:11;;;;;;;21.77;12.30;;;;;;;13.43;100.00;101608.97;5100491;28;20047;-81
2022/10/30 00:51:46;;;;;;;24.85;12.13;;;;;;;13.42;100.00;101598.38;5076957;28;20055;-81
2022/10/30 00:54:17;;;;;;;26.17;11.40;;;;;;;13.40;100.00;101610.72;5075433;28;20164;-81
2022/10/30 00:56:47;;;;;;;21.40;10.45;;;;;;;13.38;100.00;101613.38;5090797;28;20037;-81
2022/10/30 00:59:24;;;;;;;21.55;11.45;;;;;;;13.37;100.00;101602.78;5059288;28;20086;-81
2022/10/30 01:01:53;;;;;;;21.40;10.43;;;;;;;13.35;100.00;101601.91;5086720;28;20033;-81
2022/10/30 01:04:24;;;;;;;16.55;11.32;;;;;;;13.32;100.00;101593.94;5070149;28;20035;-82
2022/10/30 01:07:04;;;;;;;18.45;10.55;;;;;;;13.29;100.00;101597.44;5056064;28;20056;-81
2022/10/30 01:09:33;;;;;;;25.77;11.75;;;;;;;13.25;100.00;101596.53;5084886;28;20069;-81
2022/10/30 01:12:01;;;;;;;25.42;10.82;;;;;;;13.22;100.00;101593.84;5050516;28;20043;-81
2022/10/30 01:14:31;;;;;;;19.80;10.43;;;;;;;13.21;100.00;101586.81;5064229;28;20036;-81
2022/10/30 01:17:18;;;;;;;19.97;11.63;;;;;;;13.20;100.00;101592.09;5048810;28;20392;-81
2022/10/30 01:20:43;;;;;;;19.88;10.02;;;;;;;13.17;100.00;101600.00;5073370;28;20055;-81
2022/10/30 01:23:17;;;;;;;23.35;11.45;;;;;;;13.14;100.00;101592.97;5012454;28;20526;-82
2022/10/30 01:25:50;;;;;;;21.58;10.90;;;;;;;13.14;100.00;101586.78;5082770;28;20052;-81
2022/10/30 01:28:57;;;;;;;21.27;11.13;;;;;;;13.12;100.00;101586.78;5048908;28;20044;-81
2022/10/30 01:31:39;;;;;;;19.55;11.30;;;;;;;13.10;100.00;101588.53;5042107;28;20058;-82
2022/10/30 01:34:32;;;;;;;19.63;10.85;;;;;;;13.07;100.00;101584.09;5061514;28;20044;-81
2022/10/30 01:37:07;;;;;;;20.48;11.18;;;;;;;13.07;100.00;101588.50;5091764;28;20061;-81
2022/10/30 01:39:40;;;;;;;19.30;10.93;;;;;;;13.06;100.00;101587.63;5088440;28;20033;-81
2022/10/30 01:42:42;;;;;;;23.50;11.00;;;;;;;13.05;100.00;101591.13;5070322;28;20048;-81
2022/10/30 01:45:32;;;;;;;19.30;11.15;;;;;;;13.05;100.00;101598.19;5034498;28;20055;-82
2022/10/30 01:48:20;;;;;;;20.73;11.18;;;;;;;13.04;100.00;101601.72;5046864;28;20505;-82
2022/10/30 01:50:52;;;;;;;16.23;10.98;;;;;;;13.03;100.00;101600.84;5071122;28;20043;-81
2022/10/30 01:53:33;;;;;;;19.77;11.75;;;;;;;13.02;100.00;101590.22;5066599;28;20047;-82
2022/10/30 01:56:26;;;;;;;19.50;9.85;;;;;;;12.98;100.00;101596.38;5096205;28;20047;-82
2022/10/30 01:59:11;;;;;;;25.52;12.18;;;;;;;12.96;100.00;101585.78;5079388;28;20139;-80
2022/10/30 02:01:46;;;;;;;28.65;11.35;;;;;;;12.94;100.00;101591.97;5057224;28;20040;-81
2022/10/30 02:04:15;;;;;;;20.80;11.20;;;;;;;12.91;100.00;101589.28;5048731;28;20048;-82
2022/10/30 02:06:45;;;;;;;23.10;11.18;;;;;;;12.89;100.00;101584.00;5084363;28;20066;-81
2022/10/30 02:09:15;;;;;;;19.02;10.80;;;;;;;12.87;100.00;101581.38;5044597;28;20665;-81
2022/10/30 02:11:51;;;;;;;20.42;11.75;;;;;;;12.86;100.00;101587.50;5060871;28;20047;-81
2022/10/30 02:14:30;;;;;;;29.42;11.88;;;;;;;12.85;100.00;101585.75;5088249;28;20055;-81
2022/10/30 02:17:02;;;;;;;20.20;11.82;;;;;;;12.86;100.00;101589.28;5042719;28;20048;-81
2022/10/30 02:19:31;;;;;;;22.85;10.93;;;;;;;12.84;100.00;101591.91;5058218;28;20066;-81
2022/10/30 02:22:03;;;;;;;22.48;11.90;;;;;;;12.83;100.00;101600.72;5034650;28;20043;-81
2022/10/30 02:24:32;;;;;;;22.33;11.48;;;;;;;12.84;100.00;101606.91;5066620;28;20043;-81
2022/10/30 02:27:01;;;;;;;23.67;12.50;;;;;;;12.85;100.00;101599.00;5069193;28;20058;-81
2022/10/30 02:29:31;;;;;;;21.95;11.25;;;;;;;12.85;100.00;101601.63;5047554;28;20355;-81
2022/10/30 02:32:11;;;;;;;17.00;10.02;;;;;;;12.85;100.00;101588.41;5042110;28;20056;-82
2022/10/30 02:34:41;;;;;;;28.63;12.30;;;;;;;12.86;100.00;101594.56;5071676;28;20036;-81
2022/10/30 02:37:11;;;;;;;;;;;;;;;12.86;100.00;101594.56;5073580;27;20572;-81
2022/10/30 02:39:40;;;;;;;22.77;11.60;;;;;;;12.86;100.00;101611.31;5073283;28;20284;-81
2022/10/30 02:42:08;;;;;;;21.05;11.18;;;;;;;12.87;100.00;101604.25;5056221;28;20047;-81
2022/10/30 02:44:37;;;;;;;21.13;11.73;;;;;;;12.88;100.00;101603.41;5071267;28;20043;-81
2022/10/30 02:47:05;;;;;;;20.20;11.10;;;;;;;12.89;100.00;101621.03;5040452;28;20040;-81
2022/10/30 02:49:34;;;;;;;21.88;12.02;;;;;;;12.91;100.00;101607.81;5084513;28;20046;-81
2022/10/30 02:52:05;;;;;;;29.77;11.65;;;;;;;12.91;100.00;101608.72;5055889;28;20404;-81
2022/10/30 02:54:35;;;;;;;25.98;11.80;;;;;;;12.91;100.00;101613.09;5078673;28;20036;-81
2022/10/30 02:57:05;;;;;;;20.98;9.85;;;;;;;12.91;100.00;101613.09;5076133;28;20043;-81
2022/10/30 02:59:33;;;;;;;19.45;10.30;;;;;;;12.91;100.00;101613.09;5052676;28;20048;-81
2022/10/30 03:02:02;;;;;;;17.38;10.77;;;;;;;12.90;100.00;101606.94;5026783;28;20036;-81
2022/10/30 03:04:31;;;;;;;25.15;11.63;;;;;;;12.90;100.00;101606.94;5058348;28;20043;-81
2022/10/30 03:07:00;;;;;;;19.13;10.77;;;;;;;12.90;100.00;101609.56;5091914;28;20035;-81
2022/10/30 03:09:29;;;;;;;19.08;11.35;;;;;;;12.90;100.00;101616.63;5044026;28;20055;-81
2022/10/30 03:11:58;;;;;;;22.60;11.93;;;;;;;12.88;100.00;101614.84;5088051;28;20393;-81
2022/10/30 03:14:32;;;;;;;21.65;11.25;;;;;;;12.87;100.00;101623.69;5087826;28;20050;-81
2022/10/30 03:17:00;;;;;;;17.90;10.10;;;;;;;12.85;100.00;101616.59;5066254;28;20070;-81
2022/10/30 03:19:29;;;;;;;28.85;10.27;;;;;;;12.83;100.00;101623.63;5084742;28;20039;-81
2022/10/30 03:21:57;;;;;;;21.15;10.60;;;;;;;12.80;100.00;101621.88;5061607;28;20051;-82
2022/10/30 03:24:26;;;;;;;25.05;10.80;;;;;;;12.79;100.00;101622.72;5032072;28;20052;-81
2022/10/30 03:27:05;;;;;;;21.73;11.30;;;;;;;12.76;100.00;101622.72;5084933;28;20044;-82
2022/10/30 03:29:34;;;;;;;17.55;10.45;;;;;;;12.75;100.00;101628.00;5072037;28;20036;-81
2022/10/30 03:32:08;;;;;;;21.27;10.15;;;;;;;12.73;100.00;101624.47;5027864;28;20559;-81
2022/10/30 03:34:44;;;;;;;26.80;11.25;;;;;;;12.71;100.00;101626.22;5051666;28;20228;-81
2022/10/30 03:37:13;;;;;;;23.55;10.68;;;;;;;12.70;100.00;101630.59;5034498;28;20052;-81
2022/10/30 03:39:41;;;;;;;23.50;11.10;;;;;;;12.71;100.00;101636.78;5074939;28;20043;-81
2022/10/30 03:42:12;;;;;;;;;;;;;;;12.69;100.00;101636.78;5040096;28;20520;-81
2022/10/30 03:44:40;;;;;;;20.85;10.52;;;;;;;12.67;100.00;101641.19;5067366;28;20478;-81
2022/10/30 03:47:09;;;;;;;25.08;11.27;;;;;;;12.66;100.00;101648.22;5034240;28;20517;-81
2022/10/30 03:49:41;;;;;;;18.23;11.15;;;;;;;12.66;100.00;101642.03;5079126;28;20245;-81
2022/10/30 03:52:14;;;;;;;21.73;11.18;;;;;;;12.65;100.00;101646.44;5070384;28;20044;-82
2022/10/30 03:54:46;;;;;;;23.55;11.70;;;;;;;12.64;100.00;101643.78;5092944;28;20047;-81
2022/10/30 03:57:17;;;;;;;;;;;;;;;12.62;100.00;101651.69;5095430;28;20054;-81
2022/10/30 04:00:09;;;;;;;19.88;11.18;;;;;;;12.61;100.00;101665.81;5079066;28;19920;-81
2022/10/30 04:02:55;;;;;;;23.67;10.73;;;;;;;12.59;100.00;101661.38;5038909;28;20047;-82
2022/10/30 04:05:27;;;;;;;24.65;11.88;;;;;;;12.58;100.00;101654.31;5053125;28;20040;-81
2022/10/30 04:07:59;;;;;;;22.63;11.18;;;;;;;12.55;100.00;101649.91;5045951;28;20071;-81
2022/10/30 04:10:33;;;;;;;18.13;11.30;;;;;;;12.56;100.00;101664.00;5062831;28;20625;-81
2022/10/30 04:13:06;;;;;;;21.05;11.82;;;;;;;12.54;100.00;101660.47;5066089;28;20033;-81
2022/10/30 04:15:38;;;;;;;26.02;12.40;;;;;;;12.52;100.00;101654.28;5056457;28;20047;-81
2022/10/30 04:18:10;;;;;;;19.67;10.82;;;;;;;12.50;100.00;101662.19;5044743;28;20508;-81
2022/10/30 04:20:39;;;;;;;16.45;11.18;;;;;;;12.48;100.00;101664.81;5061045;28;20486;-81
2022/10/30 04:23:12;;;;;;;18.25;11.13;;;;;;;12.47;100.00;101667.44;5061062;28;20036;-82
2022/10/30 04:25:41;;;;;;;25.60;11.55;;;;;;;12.47;100.00;101668.31;5072666;28;20051;-81
2022/10/30 04:28:13;;;;;;;20.58;11.52;;;;;;;12.45;100.00;101670.06;5063516;28;20048;-81
2022/10/30 04:30:44;;;;;;;20.77;10.93;;;;;;;12.44;100.00;101663.03;5033838;28;20465;-81
2022/10/30 04:33:14;;;;;;;17.02;10.95;;;;;;;12.43;100.00;101663.00;5068121;28;20252;-82
2022/10/30 04:35:43;;;;;;;23.20;10.65;;;;;;;12.40;100.00;101669.16;5026094;28;20560;-81
2022/10/30 04:38:18;;;;;;;23.65;11.68;;;;;;;12.36;100.00;101672.66;5044253;28;20561;-81
2022/10/30 04:40:48;;;;;;;23.77;11.10;;;;;;;12.35;100.00;101678.81;5050708;28;20060;-81
2022/10/30 04:43:19;;;;;;;23.90;11.32;;;;;;;12.33;100.00;101669.97;5046155;28;20045;-81
2022/10/30 04:45:52;;;;;;;17.83;11.13;;;;;;;12.32;100.00;101670.84;5057350;28;20040;-81
2022/10/30 04:48:20;;;;;;;17.30;11.32;;;;;;;12.31;100.00;101657.63;5058824;28;20477;-81
2022/10/30 04:50:49;;;;;;;23.92;12.68;;;;;;;12.29;100.00;101666.41;5010100;28;20041;-81
2022/10/30 04:53:25;;;;;;;23.77;15.18;;;;;;;12.26;100.00;101665.50;5036300;28;20613;-81
2022/10/30 04:56:00;;;;;;;20.35;12.60;;;;;;;12.24;100.00;101661.97;5048880;28;20043;-81
2022/10/30 04:58:29;;;;;;;27.98;11.70;;;;;;;12.23;100.00;101657.53;5043927;28;20041;-81
2022/10/30 05:01:05;;;;;;;22.98;10.98;;;;;;;12.20;100.00;101649.59;5056836;28;20048;-82
2022/10/30 05:03:35;;;;;;;17.40;10.75;;;;;;;12.15;100.00;101648.66;5064246;28;20027;-80
2022/10/30 05:06:20;;;;;;;16.60;10.25;;;;;;;12.13;100.00;101650.41;5017364;28;20508;-81
2022/10/30 05:08:49;;;;;;;23.30;11.60;;;;;;;12.09;100.00;101653.00;5039855;28;20048;-80
2022/10/30 05:11:39;;;;;;;20.50;11.95;;;;;;;12.08;100.00;101651.25;5064490;28;20043;-81
2022/10/30 05:14:08;;;;;;;22.48;12.00;;;;;;;12.06;100.00;101655.63;5045146;28;20037;-82
2022/10/30 05:16:38;;;;;;;24.08;12.25;;;;;;;12.06;100.00;101650.34;5049694;28;20166;-79
2022/10/30 05:19:07;;;;;;;20.50;11.45;;;;;;;12.07;100.00;101649.47;5065605;28;20052;-82
2022/10/30 05:21:36;;;;;;;16.33;11.07;;;;;;;12.06;100.00;101653.00;5015103;28;20048;-82
2022/10/30 05:24:05;;;;;;;22.15;11.60;;;;;;;12.06;100.00;101650.34;5047582;28;20043;-83
2022/10/30 05:26:42;;;;;;;23.15;12.32;;;;;;;12.06;100.00;101644.16;5037273;28;20055;-81
2022/10/30 05:29:12;;;;;;;24.98;12.18;;;;;;;12.04;100.00;101645.91;5027395;28;20433;-82
2022/10/30 05:31:41;;;;;;;29.80;13.13;;;;;;;12.02;100.00;101639.72;5037430;28;20049;-81
2022/10/30 05:34:11;;;;;;;27.88;14.57;;;;;;;12.03;100.00;101634.47;5040145;28;20393;-81
2022/10/30 05:36:42;;;;;;;21.73;12.38;;;;;;;12.03;100.00;101626.53;5063947;28;20049;-82
2022/10/30 05:39:14;;;;;;;22.90;13.07;;;;;;;12.04;100.00;101630.06;5056573;27;20048;-81
2022/10/30 05:41:45;;;;;;;20.55;11.35;;;;;;;12.01;100.00;101627.41;5077153;28;20040;-81
2022/10/30 05:44:14;;;;;;;26.63;12.52;;;;;;;11.99;100.00;101626.50;5088254;28;20043;-81
2022/10/30 05:46:56;;;;;;;23.65;12.45;;;;;;;11.96;100.00;101623.81;5058209;28;20045;-81
2022/10/30 05:49:28;;;;;;;22.70;13.10;;;;;;;11.95;100.00;101619.44;5071765;28;20047;-81
2022/10/30 05:51:58;;;;;;;28.45;12.48;;;;;;;11.96;100.00;101634.38;5032695;28;20063;-82
2022/10/30 05:54:27;;;;;;;26.77;12.25;;;;;;;11.96;100.00;101629.09;5077433;28;20595;-81
2022/10/30 05:57:14;;;;;;;19.77;12.50;;;;;;;11.96;100.00;101637.03;5062383;28;20036;-81
2022/10/30 05:59:44;;;;;;;28.00;12.50;;;;;;;11.94;100.00;101631.72;5065186;28;20071;-81
2022/10/30 06:02:16;;;;;;;33.40;14.98;;;;;;;11.93;100.00;101629.97;5072433;28;20536;-82
2022/10/30 06:04:44;;;;;;;;;;;;;;;11.93;100.00;101639.63;5074958;28;20055;-81
2022/10/30 06:07:14;;;;;;;28.98;13.57;;;;;;;11.92;100.00;101636.09;5047784;28;19930;-82
2022/10/30 06:09:42;;;;;;;24.15;12.63;;;;;;;11.92;100.00;101638.75;5070740;28;20043;-81
2022/10/30 06:12:11;;;;;;;26.08;13.38;;;;;;;11.92;100.00;101644.03;5100149;28;20043;-81
2022/10/30 06:15:06;;;;;;;21.88;12.45;;;;;;;11.90;100.00;101641.38;5058921;28;20401;-81
2022/10/30 06:17:34;;;;;;;30.13;13.13;;;;;;;11.88;100.00;101640.44;5084647;28;20392;-81
2022/10/30 06:20:18;;;;;;;24.90;14.05;;;;;;;11.89;100.00;101654.56;5083848;28;20524;-81
2022/10/30 06:23:14;;;;;;;22.67;12.93;;;;;;;11.88;100.00;101655.41;5037566;28;20157;-81
2022/10/30 06:26:17;;;;;;;25.85;12.60;;;;;;;11.87;100.00;101659.81;5053160;28;20241;-81
2022/10/30 06:28:51;;;;;;;24.90;13.55;;;;;;;11.87;100.00;101661.53;5047922;28;20047;-81
2022/10/30 06:31:20;;;;;;;22.52;12.68;;;;;;;11.85;100.00;101658.91;5063963;28;20035;-80
2022/10/30 06:33:53;;;;;;;25.52;14.77;;;;;;;11.85;100.00;101658.91;5047360;28;20056;-82
2022/10/30 06:36:22;;;;;;;29.88;13.75;;;;;;;11.86;100.00;101660.66;5045520;28;20066;-82
2022/10/30 06:38:51;;;;;;;26.80;13.73;;;;;;;11.87;100.00;101658.91;5070563;28;20031;-81
2022/10/30 06:41:22;;;;;;;27.70;14.00;;;;;;;11.87;100.00;101654.53;5065211;28;20173;-81
2022/10/30 06:44:21;;;;;;;21.45;12.82;;;;;;;11.88;100.00;101660.69;5067814;28;20559;-81
2022/10/30 06:46:52;;;;;;;25.40;13.45;;;;;;;11.88;100.00;101664.22;5076691;28;20044;-81
2022/10/30 06:49:20;;;;;;;23.52;12.73;;;;;;;11.88;100.00;101664.22;5069641;28;20681;-81
2022/10/30 06:51:50;;;;;;;25.02;13.23;;;;;;;11.90;100.00;101664.25;5058844;28;20049;-81
2022/10/30 06:54:18;;;;;;;25.52;13.18;;;;;;;11.90;100.00;101673.06;5032392;28;20235;-82
2022/10/30 06:57:06;;;;;;;29.25;13.85;;;;;;;11.91;100.00;101668.69;5066910;28;20055;-83
2022/10/30 06:59:53;;;;;;;24.70;13.25;;;;;;;11.94;100.00;101673.09;5076483;28;20283;-82
2022/10/30 07:02:42;;;;;;;21.50;12.80;;;;;;;11.95;100.00;101673.13;5054558;28;20040;-83
2022/10/30 07:05:16;;;;;;;19.70;12.63;;;;;;;11.96;100.00;101677.53;5073434;28;20035;-82
2022/10/30 07:07:44;;;;;;;23.02;12.25;;;;;;;11.98;100.00;101674.91;5072570;28;20047;-83
2022/10/30 07:10:13;;;;;;;29.60;13.02;;;;;;;12.00;100.00;101673.16;5066671;28;20038;-82
2022/10/30 07:13:03;;;;;;;24.85;12.68;;;;;;;12.01;100.00;101677.59;5074819;28;20490;-82
2022/10/30 07:15:45;;;;;;;29.70;12.40;;;;;;;12.01;100.00;101670.53;5074608;28;20689;-82
2022/10/30 07:18:23;;;;;;;22.42;12.65;;;;;;;12.04;100.00;101681.16;5076273;28;20036;-82
2022/10/30 07:20:56;;;;;;;19.17;12.40;;;;;;;12.06;100.00;101678.50;5058850;28;20969;-82
2022/10/30 07:23:26;;;;;;;25.05;13.85;;;;;;;12.08;100.00;101682.94;5063849;28;20046;-82
2022/10/30 07:26:02;;;;;;;31.35;12.48;;;;;;;12.11;100.00;101678.56;5062086;28;20400;-82
2022/10/30 07:28:42;;;;;;;;;;;;;;;12.15;100.00;101680.38;5075722;28;20046;-83
2022/10/30 07:31:19;;;;;;;26.40;12.68;;;;;;;12.16;100.00;101671.59;5097413;28;20388;-82
2022/10/30 07:34:27;;;;;;;22.65;12.25;;;;;;;12.21;100.00;101677.78;5097312;28;20039;-83
2022/10/30 07:37:24;;;;;;;20.52;12.43;;;;;;;12.24;100.00;101678.69;5053899;28;20076;-82
2022/10/30 07:40:19;;;;;;;25.42;13.32;;;;;;;12.29;100.00;101678.75;5064210;28;20060;-82
2022/10/30 07:42:58;;;;;;;30.50;13.90;;;;;;;12.33;100.00;101692.88;5073126;28;20051;-83
2022/10/30 07:45:56;;;;;;;24.08;12.95;;;;;;;12.39;100.00;101688.53;5071775;28;20623;-82
2022/10/30 07:48:33;;;;;;;33.65;12.38;;;;;;;12.45;100.00;101696.50;5079270;28;20043;-83
2022/10/30 07:51:22;;;;;;;25.85;14.05;;;;;;;12.51;100.00;101695.66;5095986;28;20040;-82
2022/10/30 07:53:50;;;;;;;20.20;12.50;;;;;;;12.56;100.00;101701.91;5089588;28;20055;-82
2022/10/30 07:56:20;;;;;;;27.13;13.65;;;;;;;12.62;100.00;101707.22;5065645;28;20036;-82
2022/10/30 07:58:51;;;;;;;22.67;12.60;;;;;;;12.66;100.00;101703.75;5074102;28;20523;-82
2022/10/30 08:01:31;;;;;;;29.45;14.10;;;;;;;12.72;100.00;101702.94;5053886;28;20044;-81
2022/10/30 08:04:13;;;;;;;30.55;14.07;;;;;;;12.78;100.00;101704.69;5059526;28;20043;-82
2022/10/30 08:06:43;;;;;;;22.63;14.25;;;;;;;12.83;100.00;101703.00;5074053;28;20439;-81
2022/10/30 08:09:11;;;;;;;24.67;13.10;;;;;;;12.89;100.00;101703.03;5073902;28;20054;-82
2022/10/30 08:11:40;;;;;;;24.70;13.25;;;;;;;12.96;100.00;101704.84;5051759;28;20028;-82
2022/10/30 08:14:09;;;;;;;28.80;14.43;;;;;;;13.04;100.00;101702.25;5087880;28;20207;-82
2022/10/30 08:16:37;;;;;;;23.15;13.43;;;;;;;13.11;100.00;101698.78;5082718;28;20063;-83
2022/10/30 08:19:05;;;;;;;27.48;13.25;;;;;;;13.20;100.00;101703.25;5066453;28;20042;-82
2022/10/30 08:21:34;;;;;;;21.33;12.65;;;;;;;13.27;100.00;101711.22;5077554;28;20044;-83
2022/10/30 08:24:13;;;;;;;25.48;13.02;;;;;;;13.37;100.00;101708.69;5091215;28;20048;-82
2022/10/30 08:26:45;;;;;;;32.78;15.15;;;;;;;13.47;100.00;101709.59;5018341;28;20059;-83
2022/10/30 08:29:14;;;;;;;27.95;13.30;;;;;;;13.55;100.00;101703.44;5085922;28;20044;-83
2022/10/30 08:31:47;;;;;;;21.73;13.98;;;;;;;13.63;100.00;101707.03;5040045;28;20071;-82
2022/10/30 08:34:22;;;;;;;28.95;13.85;;;;;;;13.71;100.00;101704.41;5083175;28;20051;-82
2022/10/30 08:36:53;;;;;;;;;;;;;;;13.78;100.00;101708.88;5041857;28;20043;-82
2022/10/30 08:39:21;;;;;;;23.60;12.40;;;;;;;13.86;100.00;101714.19;5090879;28;19930;-83
2022/10/30 08:42:08;;;;;;;27.88;13.45;;;;;;;13.95;100.00;101706.28;5059435;28;20042;-82
2022/10/30 08:44:43;;;;;;;22.90;12.05;;;;;;;14.06;100.00;101711.56;5086099;28;20517;-82
2022/10/30 08:47:24;;;;;;;20.33;12.52;;;;;;;14.17;100.00;101711.63;5060315;28;20497;-82
2022/10/30 08:49:54;;;;;;;57.97;16.30;;;;;;;14.26;100.00;101719.59;5040152;28;20055;-82
2022/10/30 08:52:29;;;;;;;58.50;17.25;;;;;;;14.33;100.00;101720.47;5089429;28;20036;-82
2022/10/30 08:54:57;;;;;;;65.70;16.80;;;;;;;14.41;100.00;101716.94;5069189;28;20051;-81
2022/10/30 08:57:27;;;;;;;37.28;13.77;;;;;;;14.49;100.00;101718.75;5026047;28;20264;-83
2022/10/30 08:59:57;;;;;;;25.85;12.73;;;;;;;14.55;100.00;101722.25;5093399;28;20405;-82
2022/10/30 09:02:44;;;;;;;25.60;13.45;;;;;;;14.65;100.00;101735.56;5068136;28;20161;-82
2022/10/30 09:05:31;;;;;;;26.30;12.75;;;;;;;14.73;100.00;101729.38;5078481;27;20039;-81
2022/10/30 09:08:18;;;;;;;24.98;12.10;;;;;;;14.81;100.00;101732.91;5096758;28;20047;-83
2022/10/30 09:11:02;;;;;;;21.50;11.98;;;;;;;14.89;100.00;101740.00;5079191;28;20036;-82
2022/10/30 09:13:32;;;;;;;21.75;13.35;;;;;;;14.94;100.00;101735.59;5056047;28;20240;-82
2022/10/30 09:16:02;;;;;;;30.98;12.75;;;;;;;14.99;100.00;101725.84;5053158;28;20036;-82
2022/10/30 09:18:33;;;;;;;22.17;11.98;;;;;;;15.06;100.00;101729.38;5058429;27;24428;-82
2022/10/30 09:21:02;;;;;;;24.60;12.85;;;;;;;15.13;100.00;101726.69;5073552;28;20043;-82
2022/10/30 09:23:37;;;;;;;22.45;11.93;;;;;;;15.20;100.00;101730.25;5091688;27;20051;-82
2022/10/30 09:26:29;;;;;;;40.47;11.60;;;;;;;15.28;100.00;101724.91;5064134;28;20270;-82
2022/10/30 09:29:14;;;;;;;23.88;12.00;;;;;;;15.37;100.00;101723.13;5084069;28;20528;-82
2022/10/30 09:31:42;;;;;;;21.63;12.40;;;;;;;15.43;100.00;101722.22;5071832;28;20035;-82
2022/10/30 09:34:15;;;;;;;20.60;11.85;;;;;;;15.49;100.00;101724.84;5077658;28;20035;-82
2022/10/30 09:36:48;;;;;;;21.70;12.27;;;;;;;15.59;100.00;101720.38;5077740;28;20031;-82
2022/10/30 09:39:18;;;;;;;20.98;12.05;;;;;;;15.68;100.00;101724.78;5045421;28;20043;-82
2022/10/30 09:42:14;;;;;;;16.83;10.80;;;;;;;15.75;100.00;101731.88;5051210;28;20058;-79
2022/10/30 09:44:53;;;;;;;22.13;10.85;;;;;;;15.84;100.00;101730.94;5069812;27;20044;-79
2022/10/30 09:48:02;;;;;;;20.13;10.68;;;;;;;15.92;100.00;101718.53;5075518;28;20256;-80
2022/10/30 09:51:25;;;;;;;20.20;11.63;;;;;;;15.99;100.00;101725.53;5070660;28;20145;-80
2022/10/30 09:54:10;;;;;;;23.20;11.05;;;;;;;16.06;100.00;101727.28;5051131;28;20048;-80
2022/10/30 09:56:59;;;;;;;24.65;11.77;;;;;;;16.14;100.00;101724.56;5081991;28;20040;-80
2022/10/30 09:59:34;;;;;;;23.88;10.85;;;;;;;16.18;100.00;101715.69;5052741;27;20044;-80
2022/10/30 10:02:16;;;;;;;20.48;10.68;;;;;;;16.26;100.00;101724.50;5064263;28;20051;-80
2022/10/30 10:04:56;;;;;;;23.77;10.43;;;;;;;16.33;100.00;101728.91;5087280;28;20400;-79
2022/10/30 10:07:47;;;;;;;17.67;10.30;;;;;;;16.41;100.00;101730.59;5081929;28;20168;-80
2022/10/30 10:10:39;;;;;;;22.48;11.07;;;;;;;16.49;100.00;101723.47;5086553;28;20090;-80
2022/10/30 10:13:25;;;;;;;21.98;11.35;;;;;;;16.55;100.00;101720.75;5042272;28;20039;-80
2022/10/30 10:16:12;;;;;;;15.80;9.82;;;;;;;16.60;100.00;101721.63;5073555;28;20047;-79
2022/10/30 10:18:57;;;;;;;24.08;10.82;;;;;;;16.68;100.00;101724.22;5085961;28;20272;-80
2022/10/30 10:21:28;;;;;;;17.90;10.23;;;;;;;16.76;100.00;101722.34;5059693;28;20054;-81
2022/10/30 10:24:02;;;;;;;21.98;9.07;;;;;;;16.79;100.00;101729.47;5076404;28;20043;-81
2022/10/30 10:27:09;;;;;;;22.60;9.70;;;;;;;16.79;100.00;101730.34;5076534;28;20055;-80
2022/10/30 10:29:52;;;;;;;16.67;8.95;;;;;;;16.83;100.00;101731.22;4977874;28;20179;-80
2022/10/30 10:32:20;;;;;;;21.48;10.07;;;;;;;16.84;100.00;101727.66;4974629;28;20064;-81
2022/10/30 10:34:52;;;;;;;23.88;9.82;;;;;;;16.85;100.00;101734.75;5048465;28;20059;-81
2022/10/30 10:37:27;;;;;;;20.50;9.25;;;;;;;16.85;100.00;101724.09;5088337;28;20043;-82
2022/10/30 10:40:14;;;;;;;18.67;9.65;;;;;;;16.88;100.00;101718.72;5053261;28;20409;-80
2022/10/30 10:42:52;;;;;;;20.90;9.80;;;;;;;16.95;100.00;101720.44;5103906;28;20130;-80
2022/10/30 10:45:27;;;;;;;17.48;9.02;;;;;;;16.98;100.00;101728.41;5026185;28;20044;-82
2022/10/30 10:48:11;;;;;;;17.33;9.15;;;;;;;17.04;100.00;101731.00;5078606;28;20058;-81
2022/10/30 10:50:50;;;;;;;15.38;8.88;;;;;;;17.12;100.00;101729.16;5060993;28;20574;-81
2022/10/30 10:53:29;;;;;;;17.73;9.07;;;;;;;17.21;100.00;101725.53;5078596;28;20032;-82
2022/10/30 10:55:59;;;;;;;21.92;9.15;;;;;;;17.29;100.00;101718.31;5088475;28;20035;-82
2022/10/30 10:58:49;;;;;;;13.57;8.32;;;;;;;17.38;100.00;101712.03;5098403;28;20024;-81
2022/10/30 11:01:22;;;;;;;15.75;8.93;;;;;;;17.43;100.00;101699.53;5057737;28;20041;-82
2022/10/30 11:03:56;;;;;;;20.17;9.18;;;;;;;17.50;100.00;101698.56;5091894;28;20770;-81
2022/10/30 11:06:38;;;;;;;19.02;9.95;;;;;;;17.58;100.00;101694.91;5054657;28;20355;-82
2022/10/30 11:09:18;;;;;;;19.02;8.52;;;;;;;17.64;100.00;101697.53;5061663;28;20257;-81
2022/10/30 11:11:49;;;;;;;15.00;8.20;;;;;;;17.68;100.00;101696.56;5079165;28;20095;-83
2022/10/30 11:14:28;;;;;;;16.77;8.52;;;;;;;17.73;100.00;101694.72;5054693;28;20051;-81
2022/10/30 11:17:02;;;;;;;17.60;8.43;;;;;;;17.79;100.00;101696.41;5018703;28;20044;-82
2022/10/30 11:19:31;;;;;;;31.05;9.45;;;;;;;17.83;100.00;101700.81;5059473;28;20036;-81
2022/10/30 11:22:00;;;;;;;17.75;8.93;;;;;;;17.88;100.00;101715.00;5070572;28;20051;-81
2022/10/30 11:24:31;;;;;;;19.65;8.85;;;;;;;17.92;100.00;101712.28;5061449;28;20067;-81
2022/10/30 11:27:23;;;;;;;20.00;8.55;;;;;;;17.98;100.00;101710.44;5048164;28;20036;-81
2022/10/30 11:29:52;;;;;;;18.10;8.27;;;;;;;18.02;100.00;101718.34;5058295;28;20382;-81
2022/10/30 11:32:31;;;;;;;17.48;7.57;;;;;;;18.07;100.00;101720.94;5039100;28;20044;-81
2022/10/30 11:35:06;;;;;;;15.50;8.02;;;;;;;18.11;100.00;101717.34;5073548;28;20059;-81
2022/10/30 11:37:38;;;;;;;14.93;8.48;;;;;;;18.16;100.00;101710.16;5074475;28;20155;-81
2022/10/30 11:40:11;;;;;;;15.98;8.13;;;;;;;18.22;100.00;101710.09;5080676;28;20059;-81
2022/10/30 11:43:01;;;;;;;17.40;8.13;;;;;;;18.26;100.00;101714.47;5074148;28;20309;-81